Time;durP1;ratioP1;P1;durP2;ratioP2;P2;SDS_P1;SDS_P2;PMS_P1;PMS_P2;Temp;Humidity;BMP_temperature;BMP_pressure;BME280_temperature;BME280_humidity;BME280_pressure;Samples;Min_cycle;Max_cycle;Signal;HPM_P1;HPM_P2
2022/03/07 00:00:26;;;;;;;3.72;2.20;;;1.80;75.20;;;;;;2067304;28;20045;-85
2022/03/07 00:01:27;;;;;;;3.67;2.00;;;1.80;75.30;;;;;;2058565;28;20123;-84
2022/03/07 00:02:28;;;;;;;4.05;2.00;;;1.70;75.30;;;;;;2063873;28;20037;-85
2022/03/07 00:03:28;;;;;;;4.03;1.92;;;1.80;75.40;;;;;;2063690;28;20034;-85
2022/03/07 00:04:29;;;;;;;3.95;1.95;;;1.70;75.40;;;;;;2055554;28;20077;-85
2022/03/07 00:05:30;;;;;;;3.58;2.17;;;1.70;75.40;;;;;;2054920;28;20062;-84
2022/03/07 00:06:31;;;;;;;3.88;1.98;;;1.70;75.50;;;;;;2051327;28;20046;-84
2022/03/07 00:07:31;;;;;;;4.32;2.30;;;1.70;75.50;;;;;;2078656;28;20042;-84
2022/03/07 00:08:32;;;;;;;3.67;1.90;;;1.70;75.50;;;;;;2062064;28;20047;-84
2022/03/07 00:09:33;;;;;;;3.60;1.88;;;1.70;75.50;;;;;;2063645;28;20042;-84
2022/03/07 00:10:33;;;;;;;3.40;2.03;;;1.70;75.50;;;;;;2055012;28;20059;-84
2022/03/07 00:11:35;;;;;;;4.13;2.28;;;1.70;75.60;;;;;;2055461;28;20050;-84
2022/03/07 00:12:36;;;;;;;4.20;2.38;;;1.70;75.60;;;;;;2062482;28;20126;-85
2022/03/07 00:13:37;;;;;;;3.65;1.95;;;1.70;75.60;;;;;;2072339;28;20045;-84
2022/03/07 00:14:37;;;;;;;4.53;2.15;;;1.60;75.60;;;;;;2080692;28;20058;-84
2022/03/07 00:15:38;;;;;;;4.20;2.17;;;1.60;75.60;;;;;;2047369;28;20050;-85
2022/03/07 00:16:39;;;;;;;4.68;2.28;;;1.70;75.60;;;;;;2079579;28;20041;-85
2022/03/07 00:17:40;;;;;;;4.90;2.20;;;1.60;75.60;;;;;;2057221;28;20484;-84
2022/03/07 00:18:41;;;;;;;3.60;1.92;;;1.60;75.60;;;;;;2055489;28;20055;-84
2022/03/07 00:19:41;;;;;;;3.47;1.98;;;1.60;75.60;;;;;;2059487;28;20069;-85
2022/03/07 00:20:42;;;;;;;3.30;2.20;;;1.60;76.40;;;;;;2079323;28;20126;-84
2022/03/07 00:21:42;;;;;;;3.33;1.88;;;1.60;75.80;;;;;;2059909;28;20062;-85
2022/03/07 00:22:43;;;;;;;3.38;1.80;;;1.60;75.90;;;;;;2064001;28;20037;-84
2022/03/07 00:23:44;;;;;;;3.10;1.90;;;1.60;75.90;;;;;;2064079;28;20054;-85
2022/03/07 00:24:44;;;;;;;3.05;1.92;;;1.60;76.50;;;;;;2063886;28;20038;-84
2022/03/07 00:25:45;;;;;;;4.38;2.10;;;1.60;76.00;;;;;;2063810;28;20046;-84
2022/03/07 00:26:46;;;;;;;2.92;1.67;;;1.50;75.90;;;;;;2055005;28;20126;-85
2022/03/07 00:27:46;;;;;;;3.83;2.25;;;1.50;76.00;;;;;;2055166;28;20043;-85
2022/03/07 00:28:47;;;;;;;3.80;2.22;;;1.50;76.00;;;;;;2097200;28;20072;-85
2022/03/07 00:29:48;;;;;;;4.10;2.13;;;1.60;76.10;;;;;;2073541;28;20118;-84
2022/03/07 00:30:49;;;;;;;2.85;1.90;;;1.60;76.00;;;;;;2046798;28;20040;-84
2022/03/07 00:31:50;;;;;;;3.67;2.10;;;1.60;76.00;;;;;;2043779;28;20038;-85
2022/03/07 00:32:51;;;;;;;3.30;1.95;;;1.60;76.00;;;;;;2054534;28;20051;-84
2022/03/07 00:33:51;;;;;;;4.05;1.90;;;1.60;76.00;;;;;;2048370;28;20066;-84
2022/03/07 00:34:52;;;;;;;5.32;2.45;;;1.50;76.00;;;;;;2055354;28;20043;-85
2022/03/07 00:35:53;;;;;;;3.30;1.90;;;1.50;76.10;;;;;;2056017;28;20035;-85
2022/03/07 00:36:53;;;;;;;3.47;2.13;;;1.50;76.10;;;;;;2063257;28;20039;-84
2022/03/07 00:37:54;;;;;;;3.70;2.20;;;1.50;76.20;;;;;;2068920;28;20023;-85
2022/03/07 00:38:55;;;;;;;3.20;2.10;;;1.40;76.30;;;;;;2064375;28;20138;-83
2022/03/07 00:39:55;;;;;;;3.65;1.98;;;1.40;76.30;;;;;;2054749;28;20039;-84
2022/03/07 00:40:57;;;;;;;4.80;2.08;;;1.40;76.40;;;;;;2060276;28;20042;-84
2022/03/07 00:41:57;;;;;;;3.42;1.90;;;1.40;76.40;;;;;;2058496;28;20554;-84
2022/03/07 00:42:58;;;;;;;3.35;2.22;;;1.40;76.50;;;;;;2063196;28;20046;-85
2022/03/07 00:43:58;;;;;;;3.33;2.05;;;1.30;76.50;;;;;;2055246;28;20050;-84
2022/03/07 00:44:59;;;;;;;3.22;2.10;;;1.30;76.60;;;;;;2055357;28;20452;-85
2022/03/07 00:46:00;;;;;;;3.45;2.03;;;1.30;76.60;;;;;;2055355;28;20512;-85
2022/03/07 00:47:01;;;;;;;4.07;2.10;;;1.30;76.70;;;;;;2055258;28;20045;-84
2022/03/07 00:48:02;;;;;;;3.47;2.05;;;1.30;76.80;;;;;;2054453;28;20043;-84
2022/03/07 00:49:02;;;;;;;3.85;2.00;;;1.30;76.80;;;;;;2081470;28;20516;-85
2022/03/07 00:50:05;;;;;;;3.08;2.05;;;1.20;76.80;;;;;;2078987;28;20051;-84
2022/03/07 00:51:06;;;;;;;3.97;2.17;;;1.20;76.90;;;;;;2050609;28;20035;-84
2022/03/07 00:52:07;;;;;;;3.95;2.00;;;1.20;76.90;;;;;;2046952;28;20051;-84
2022/03/07 00:53:10;;;;;;;3.75;2.13;;;1.20;76.90;;;;;;2054404;28;20425;-84
2022/03/07 00:54:11;;;;;;;4.20;1.90;;;1.20;76.90;;;;;;2055351;28;20181;-84
2022/03/07 00:55:12;;;;;;;3.67;2.00;;;1.20;77.00;;;;;;2047692;28;20043;-84
2022/03/07 00:56:12;;;;;;;3.92;1.83;;;1.20;77.10;;;;;;2055526;28;20464;-85
2022/03/07 00:57:13;;;;;;;3.47;2.00;;;1.20;77.20;;;;;;2054759;28;20037;-84
2022/03/07 00:58:14;;;;;;;4.15;1.98;;;1.20;77.20;;;;;;2054779;28;20081;-84
2022/03/07 00:59:15;;;;;;;3.65;1.90;;;1.20;77.80;;;;;;2063669;28;20076;-85
2022/03/07 01:00:16;;;;;;;4.57;2.10;;;1.10;77.20;;;;;;2062349;28;20038;-85
2022/03/07 01:01:17;;;;;;;3.95;2.10;;;1.10;77.20;;;;;;2054837;28;20050;-84
2022/03/07 01:02:18;;;;;;;3.67;1.90;;;1.10;77.30;;;;;;2047251;28;20513;-85
2022/03/07 01:03:19;;;;;;;3.63;2.08;;;1.10;77.40;;;;;;2055140;28;20042;-85
2022/03/07 01:04:20;;;;;;;3.75;2.08;;;1.10;77.40;;;;;;2061323;28;20050;-84
2022/03/07 01:05:20;;;;;;;2.72;1.77;;;1.10;77.40;;;;;;2063652;28;20039;-85
2022/03/07 01:06:22;;;;;;;3.08;1.98;;;1.10;77.50;;;;;;2054864;28;20083;-85
2022/03/07 01:07:22;;;;;;;4.20;1.88;;;1.10;77.50;;;;;;2054029;28;20518;-84
2022/03/07 01:08:23;;;;;;;3.53;2.00;;;1.10;77.50;;;;;;2047037;28;20097;-84
2022/03/07 01:09:24;;;;;;;3.95;2.30;;;1.10;77.50;;;;;;2055153;28;20141;-84
2022/03/07 01:10:25;;;;;;;4.32;1.98;;;1.10;77.50;;;;;;2046402;28;20414;-84
2022/03/07 01:11:26;;;;;;;3.67;2.20;;;1.10;77.50;;;;;;2040805;28;20518;-85
2022/03/07 01:12:26;;;;;;;3.45;2.10;;;1.00;77.50;;;;;;2054574;28;20104;-85
2022/03/07 01:13:29;;;;;;;4.43;2.28;;;1.10;77.60;;;;;;2064333;28;20088;-85
2022/03/07 01:14:29;;;;;;;2.78;1.80;;;1.10;77.60;;;;;;2063796;28;20066;-85
2022/03/07 01:15:30;;;;;;;3.35;2.13;;;1.00;77.50;;;;;;2063750;28;20039;-84
2022/03/07 01:16:31;;;;;;;3.25;1.80;;;1.00;77.60;;;;;;2055121;28;20478;-85
2022/03/07 01:17:32;;;;;;;5.20;2.15;;;1.00;77.60;;;;;;2050848;28;20475;-84
2022/03/07 01:18:33;;;;;;;4.05;2.13;;;1.00;77.70;;;;;;2046839;28;20047;-84
2022/03/07 01:19:33;;;;;;;3.45;2.10;;;1.00;77.70;;;;;;2092219;28;20040;-84
2022/03/07 01:20:34;;;;;;;3.25;2.10;;;1.00;77.70;;;;;;2054234;28;20492;-84
2022/03/07 01:21:35;;;;;;;3.63;2.10;;;1.00;77.80;;;;;;2054628;28;20043;-84
2022/03/07 01:22:36;;;;;;;3.50;2.08;;;1.00;77.80;;;;;;2052464;28;20089;-85
2022/03/07 01:23:36;;;;;;;4.13;2.30;;;1.00;77.80;;;;;;2061080;28;20412;-85
2022/03/07 01:24:37;;;;;;;4.28;2.30;;;1.00;77.80;;;;;;2055420;28;20404;-85
2022/03/07 01:25:38;;;;;;;4.22;2.15;;;1.00;77.80;;;;;;2061018;28;20111;-85
2022/03/07 01:26:38;;;;;;;4.05;2.35;;;1.00;77.80;;;;;;2063534;28;20121;-85
2022/03/07 01:27:40;;;;;;;4.57;2.45;;;1.00;77.80;;;;;;2064485;28;20034;-85
2022/03/07 01:28:41;;;;;;;4.88;2.40;;;1.00;77.80;;;;;;2056501;28;20045;-85
2022/03/07 01:29:41;;;;;;;3.42;2.10;;;1.00;77.80;;;;;;2056107;28;20054;-84
2022/03/07 01:30:42;;;;;;;3.80;2.30;;;1.00;77.80;;;;;;2048180;28;20051;-85
2022/03/07 01:31:42;;;;;;;4.32;2.50;;;1.00;77.80;;;;;;2040398;29;20040;-85
2022/03/07 01:32:43;;;;;;;3.58;2.05;;;1.00;77.80;;;;;;2050835;28;20128;-84
2022/03/07 01:33:44;;;;;;;3.60;2.05;;;1.00;77.80;;;;;;2056331;28;20506;-85
2022/03/07 01:34:44;;;;;;;3.90;2.20;;;1.00;77.90;;;;;;2080160;28;20045;-85
2022/03/07 01:35:45;;;;;;;4.78;2.42;;;1.00;77.90;;;;;;2090092;28;20115;-85
2022/03/07 01:36:46;;;;;;;4.07;2.33;;;1.00;77.90;;;;;;2059602;28;20083;-84
2022/03/07 01:37:46;;;;;;;5.45;2.60;;;1.00;77.90;;;;;;2056361;28;20058;-85
2022/03/07 01:38:47;;;;;;;4.35;2.38;;;1.00;77.90;;;;;;2056204;28;20042;-85
2022/03/07 01:39:48;;;;;;;5.32;2.47;;;1.00;77.90;;;;;;2039247;28;20040;-84
2022/03/07 01:40:50;;;;;;;4.93;2.40;;;1.00;77.90;;;;;;2035848;28;20091;-84
2022/03/07 01:41:51;;;;;;;4.13;2.60;;;0.90;77.80;;;;;;2060698;28;20054;-84
2022/03/07 01:42:51;;;;;;;4.05;2.17;;;0.90;77.90;;;;;;2056060;28;20053;-85
2022/03/07 01:43:52;;;;;;;3.67;2.15;;;1.00;78.00;;;;;;2056346;28;20050;-84
2022/03/07 01:44:52;;;;;;;4.47;2.40;;;0.90;77.90;;;;;;2056096;28;20556;-85
2022/03/07 01:45:53;;;;;;;4.55;2.60;;;0.90;78.00;;;;;;2048026;28;20497;-85
2022/03/07 01:46:55;;;;;;;4.75;2.65;;;0.90;78.10;;;;;;2049654;28;20043;-84
2022/03/07 01:47:56;;;;;;;4.60;2.33;;;0.90;78.10;;;;;;2064181;28;20421;-85
2022/03/07 01:48:56;;;;;;;4.10;2.55;;;0.90;78.20;;;;;;2064254;28;20047;-84
2022/03/07 01:49:57;;;;;;;3.28;2.00;;;0.90;78.20;;;;;;2061723;28;20065;-85
2022/03/07 01:50:58;;;;;;;4.03;2.42;;;0.90;78.30;;;;;;2056845;28;20048;-84
2022/03/07 01:51:59;;;;;;;4.32;2.17;;;0.90;78.30;;;;;;2061551;28;20080;-84
2022/03/07 01:52:59;;;;;;;3.35;2.00;;;0.80;78.30;;;;;;2051499;28;20053;-84
2022/03/07 01:54:00;;;;;;;4.10;2.60;;;0.80;78.40;;;;;;2048273;29;20043;-84
2022/03/07 01:55:01;;;;;;;6.03;3.00;;;0.80;78.40;;;;;;2055987;28;20482;-85
2022/03/07 01:56:01;;;;;;;4.35;2.53;;;0.80;78.40;;;;;;2092940;28;20044;-84
2022/03/07 01:57:03;;;;;;;3.85;2.33;;;0.80;78.40;;;;;;2097726;28;20494;-84
2022/03/07 01:58:04;;;;;;;3.60;2.13;;;0.80;78.50;;;;;;2062929;28;20034;-84
2022/03/07 01:59:05;;;;;;;5.47;2.67;;;0.80;78.50;;;;;;2056261;28;20043;-85
2022/03/07 02:00:09;;;;;;;5.93;2.90;;;0.70;78.50;;;;;;2057191;28;20039;-84
2022/03/07 02:01:10;;;;;;;4.75;2.78;;;0.70;78.60;;;;;;2064128;28;20022;-84
2022/03/07 02:02:10;;;;;;;4.65;2.30;;;0.70;78.60;;;;;;2056161;28;20055;-85
2022/03/07 02:03:11;;;;;;;4.40;2.42;;;0.70;78.50;;;;;;2041342;28;20045;-85
2022/03/07 02:04:12;;;;;;;4.05;2.60;;;0.70;78.60;;;;;;2047320;28;20482;-85
2022/03/07 02:05:13;;;;;;;3.90;2.50;;;0.70;78.60;;;;;;2057019;28;20103;-84
2022/03/07 02:06:14;;;;;;;5.47;2.85;;;0.70;78.70;;;;;;2056114;28;20042;-84
2022/03/07 02:07:14;;;;;;;5.80;2.80;;;0.70;78.70;;;;;;2048149;29;20055;-84
2022/03/07 02:08:15;;;;;;;4.97;3.13;;;0.70;78.80;;;;;;2050258;28;20173;-84
2022/03/07 02:09:17;;;;;;;5.07;2.60;;;0.60;78.70;;;;;;2047665;29;20047;-84
2022/03/07 02:10:17;;;;;;;3.80;2.50;;;0.60;78.70;;;;;;2086176;28;20044;-85
2022/03/07 02:11:18;;;;;;;4.47;2.35;;;0.60;78.80;;;;;;2048119;28;20038;-84
2022/03/07 02:12:19;;;;;;;5.03;2.70;;;0.60;78.80;;;;;;2037552;28;20173;-85
2022/03/07 02:13:21;;;;;;;5.60;2.60;;;0.60;78.80;;;;;;2039717;28;20043;-84
2022/03/07 02:14:22;;;;;;;4.35;2.50;;;0.60;78.80;;;;;;2047530;28;20035;-84
2022/03/07 02:15:23;;;;;;;4.78;2.67;;;0.60;78.90;;;;;;2056054;28;20477;-84
2022/03/07 02:16:24;;;;;;;4.45;2.60;;;0.60;78.90;;;;;;2049440;28;20146;-84
2022/03/07 02:17:25;;;;;;;5.18;2.85;;;0.50;79.50;;;;;;2065337;28;20056;-84
2022/03/07 02:18:25;;;;;;;5.00;2.63;;;0.50;78.90;;;;;;2056388;28;20088;-84
2022/03/07 02:19:26;;;;;;;6.10;3.05;;;0.50;78.90;;;;;;2048670;28;20512;-84
2022/03/07 02:20:28;;;;;;;5.00;2.90;;;0.50;79.60;;;;;;2049279;28;20035;-85
2022/03/07 02:21:31;;;;;;;4.85;2.72;;;0.50;79.10;;;;;;2057520;28;20051;-86
2022/03/07 02:22:33;;;;;;;4.22;2.50;;;0.40;79.20;;;;;;2050510;28;20050;-84
2022/03/07 02:23:35;;;;;;;5.72;3.03;;;0.40;79.30;;;;;;2050459;28;20047;-85
2022/03/07 02:24:36;;;;;;;4.72;2.63;;;0.40;79.30;;;;;;2058418;28;20042;-84
2022/03/07 02:25:36;;;;;;;4.18;2.53;;;0.40;79.40;;;;;;2066845;28;20057;-85
2022/03/07 02:26:37;;;;;;;4.68;2.60;;;0.40;79.40;;;;;;2065837;28;20026;-84
2022/03/07 02:27:38;;;;;;;5.55;2.72;;;0.40;79.50;;;;;;2056142;28;20532;-85
2022/03/07 02:28:43;;;;;;;4.88;3.00;;;0.40;79.50;;;;;;2055656;28;20039;-84
2022/03/07 02:29:45;;;;;;;4.45;2.50;;;0.40;79.50;;;;;;2055192;28;20043;-84
2022/03/07 02:30:45;;;;;;;4.72;2.55;;;0.40;79.50;;;;;;2048592;28;20101;-84
2022/03/07 02:31:46;;;;;;;4.20;2.47;;;0.30;79.50;;;;;;2073269;28;20561;-84
2022/03/07 02:32:47;;;;;;;3.67;2.28;;;0.40;79.50;;;;;;2054988;28;20398;-84
2022/03/07 02:33:48;;;;;;;4.88;2.63;;;0.30;79.50;;;;;;2056664;28;20134;-84
2022/03/07 02:34:49;;;;;;;3.90;2.42;;;0.30;79.50;;;;;;2058195;28;20524;-84
2022/03/07 02:35:49;;;;;;;4.22;2.58;;;0.40;79.60;;;;;;2059967;28;20045;-84
2022/03/07 02:36:50;;;;;;;4.30;2.45;;;0.30;79.50;;;;;;2058042;28;20035;-84
2022/03/07 02:37:51;;;;;;;4.93;2.92;;;0.30;79.60;;;;;;2060232;28;20514;-85
2022/03/07 02:38:51;;;;;;;5.03;2.70;;;0.30;79.50;;;;;;2064731;28;20399;-84
2022/03/07 02:39:52;;;;;;;7.40;2.80;;;0.40;79.60;;;;;;2064655;28;20042;-84
2022/03/07 02:40:53;;;;;;;5.13;2.58;;;0.30;79.60;;;;;;2064587;28;20030;-84
2022/03/07 02:41:54;;;;;;;4.22;2.58;;;0.40;79.70;;;;;;2057364;28;20061;-84
2022/03/07 02:42:55;;;;;;;4.72;2.90;;;0.40;80.30;;;;;;2055511;28;20533;-84
2022/03/07 02:43:55;;;;;;;5.15;2.80;;;0.40;79.70;;;;;;2053728;28;20050;-84
2022/03/07 02:44:56;;;;;;;5.95;2.70;;;0.40;79.80;;;;;;2048057;28;20039;-84
2022/03/07 02:45:58;;;;;;;6.50;2.88;;;0.40;80.40;;;;;;2056522;28;20042;-84
2022/03/07 02:46:58;;;;;;;4.60;2.83;;;0.40;79.80;;;;;;2056355;28;20039;-84
2022/03/07 02:47:59;;;;;;;5.00;2.67;;;0.40;79.80;;;;;;2092020;28;20036;-84
2022/03/07 02:49:00;;;;;;;5.45;2.95;;;0.30;79.70;;;;;;2089715;28;20052;-84
2022/03/07 02:50:00;;;;;;;3.92;2.55;;;0.40;79.80;;;;;;2056507;28;20049;-84
2022/03/07 02:51:01;;;;;;;5.05;2.40;;;0.40;79.70;;;;;;2103664;28;20036;-84
2022/03/07 02:52:02;;;;;;;5.85;3.00;;;0.40;79.70;;;;;;2069445;28;20035;-84
2022/03/07 02:53:03;;;;;;;5.15;2.72;;;0.40;79.70;;;;;;2055216;28;20121;-84
2022/03/07 02:54:05;;;;;;;5.63;3.08;;;0.40;79.80;;;;;;2061144;28;20035;-84
2022/03/07 02:55:06;;;;;;;5.82;2.80;;;0.40;79.80;;;;;;2065033;28;20033;-84
2022/03/07 02:56:07;;;;;;;5.05;2.97;;;0.40;79.80;;;;;;2064521;28;20512;-85
2022/03/07 02:57:08;;;;;;;5.20;3.00;;;0.40;79.80;;;;;;2090418;28;20020;-85
2022/03/07 02:58:08;;;;;;;5.32;2.83;;;0.40;79.80;;;;;;2089443;28;20037;-85
2022/03/07 02:59:09;;;;;;;4.63;3.00;;;0.40;79.90;;;;;;2097977;28;20124;-84
2022/03/07 03:00:10;;;;;;;5.75;3.20;;;0.40;79.80;;;;;;2089617;28;20524;-84
2022/03/07 03:01:11;;;;;;;4.97;2.80;;;0.40;79.90;;;;;;2048910;28;20035;-84
2022/03/07 03:02:12;;;;;;;5.75;3.00;;;0.40;79.90;;;;;;2047861;28;20546;-85
2022/03/07 03:03:13;;;;;;;4.68;2.75;;;0.40;79.90;;;;;;2050855;28;20074;-84
2022/03/07 03:04:14;;;;;;;5.60;3.05;;;0.40;79.90;;;;;;2056145;28;20512;-84
2022/03/07 03:05:14;;;;;;;4.30;2.63;;;0.40;79.90;;;;;;2054220;28;20451;-84
2022/03/07 03:06:15;;;;;;;5.65;2.88;;;0.40;79.90;;;;;;2055590;28;20381;-84
2022/03/07 03:07:16;;;;;;;5.07;3.03;;;0.40;79.90;;;;;;2057535;28;20030;-84
2022/03/07 03:08:17;;;;;;;4.10;2.50;;;0.40;79.90;;;;;;2063269;28;20075;-84
2022/03/07 03:09:17;;;;;;;5.05;2.80;;;0.40;80.00;;;;;;2064484;28;20434;-84
2022/03/07 03:10:19;;;;;;;6.25;3.10;;;0.40;80.00;;;;;;2047869;28;20490;-84
2022/03/07 03:11:19;;;;;;;4.95;3.03;;;0.40;80.10;;;;;;2048363;28;20028;-84
2022/03/07 03:12:24;;;;;;;6.18;2.92;;;0.40;80.10;;;;;;2063574;28;20514;-85
2022/03/07 03:13:24;;;;;;;6.07;3.30;;;0.40;80.10;;;;;;2063557;28;20030;-84
2022/03/07 03:14:25;;;;;;;4.55;2.78;;;0.40;80.10;;;;;;2073597;28;20043;-85
2022/03/07 03:15:26;;;;;;;4.85;2.83;;;0.40;80.10;;;;;;2070190;28;20046;-84
2022/03/07 03:16:26;;;;;;;4.25;2.70;;;0.40;80.10;;;;;;2047781;28;20035;-85
2022/03/07 03:17:27;;;;;;;4.95;2.95;;;0.30;80.10;;;;;;2049721;28;20119;-84
2022/03/07 03:18:28;;;;;;;4.53;2.88;;;0.30;80.10;;;;;;2097086;28;20044;-84
2022/03/07 03:19:28;;;;;;;5.80;3.17;;;0.30;80.20;;;;;;2089542;28;20684;-85
2022/03/07 03:20:29;;;;;;;5.38;2.97;;;0.30;80.10;;;;;;2097737;28;20032;-85
2022/03/07 03:21:29;;;;;;;5.07;3.00;;;0.30;80.20;;;;;;2083593;28;20041;-85
2022/03/07 03:22:31;;;;;;;5.20;3.20;;;0.30;80.20;;;;;;2047205;28;20039;-84
2022/03/07 03:23:31;;;;;;;5.05;3.08;;;0.30;80.20;;;;;;2055553;28;20471;-85
2022/03/07 03:24:32;;;;;;;6.13;2.85;;;0.40;80.30;;;;;;2056367;28;20038;-85
2022/03/07 03:25:33;;;;;;;5.35;3.20;;;0.30;80.30;;;;;;2047538;28;20060;-85
2022/03/07 03:26:33;;;;;;;5.40;3.17;;;0.30;80.30;;;;;;2039205;28;20048;-85
2022/03/07 03:27:34;;;;;;;5.15;3.03;;;0.30;80.30;;;;;;2046168;28;20048;-85
2022/03/07 03:28:35;;;;;;;5.50;3.20;;;0.30;80.40;;;;;;2054807;28;20142;-84
2022/03/07 03:29:35;;;;;;;5.82;3.50;;;0.30;80.40;;;;;;2047690;28;20509;-84
2022/03/07 03:30:36;;;;;;;5.18;3.13;;;0.30;80.40;;;;;;2057844;28;20040;-84
2022/03/07 03:31:37;;;;;;;5.18;3.10;;;0.30;80.40;;;;;;2058068;28;20133;-84
2022/03/07 03:32:37;;;;;;;5.57;3.42;;;0.30;80.50;;;;;;2055382;28;20459;-84
2022/03/07 03:33:39;;;;;;;5.90;3.05;;;0.30;80.40;;;;;;2045100;28;20493;-84
2022/03/07 03:34:39;;;;;;;4.90;3.13;;;0.30;80.40;;;;;;2042805;28;20047;-84
2022/03/07 03:35:40;;;;;;;5.93;3.28;;;0.30;80.50;;;;;;2061313;28;20043;-84
2022/03/07 03:36:41;;;;;;;5.18;2.83;;;0.40;80.50;;;;;;2056460;28;20039;-84
2022/03/07 03:37:41;;;;;;;5.10;3.17;;;0.30;80.40;;;;;;2047377;28;20039;-85
2022/03/07 03:38:42;;;;;;;4.68;3.05;;;0.40;80.60;;;;;;2047552;28;20120;-84
2022/03/07 03:39:43;;;;;;;5.72;3.22;;;0.30;80.50;;;;;;2047603;28;20063;-84
2022/03/07 03:40:43;;;;;;;4.65;3.00;;;0.30;80.50;;;;;;2052160;28;20034;-84
2022/03/07 03:41:44;;;;;;;6.13;3.58;;;0.40;80.60;;;;;;2047616;28;20534;-84
2022/03/07 03:42:45;;;;;;;6.82;3.20;;;0.30;80.60;;;;;;2035059;28;20383;-85
2022/03/07 03:43:46;;;;;;;4.95;3.15;;;0.30;80.60;;;;;;2088131;28;20081;-84
2022/03/07 03:44:46;;;;;;;5.53;3.42;;;0.40;80.80;;;;;;2061132;28;20050;-85
2022/03/07 03:45:47;;;;;;;6.72;3.65;;;0.30;80.70;;;;;;2062907;28;20558;-85
2022/03/07 03:46:47;;;;;;;5.68;3.60;;;0.30;80.70;;;;;;2092661;28;20040;-85
2022/03/07 03:47:48;;;;;;;6.22;3.78;;;0.30;80.70;;;;;;2097447;28;20066;-84
2022/03/07 03:48:49;;;;;;;6.30;3.80;;;0.30;80.80;;;;;;2097044;28;20131;-84
2022/03/07 03:49:49;;;;;;;6.22;3.40;;;0.30;80.90;;;;;;2105628;28;20040;-85
2022/03/07 03:50:50;;;;;;;5.72;3.20;;;0.30;80.90;;;;;;2097225;28;20525;-84
2022/03/07 03:51:50;;;;;;;5.82;3.25;;;0.30;80.90;;;;;;2055131;28;20069;-85
2022/03/07 03:52:51;;;;;;;6.53;3.75;;;0.30;80.90;;;;;;2055702;28;20043;-84
2022/03/07 03:53:52;;;;;;;5.10;3.28;;;0.30;80.90;;;;;;2089274;28;20041;-84
2022/03/07 03:54:55;;;;;;;5.93;3.53;;;0.30;80.90;;;;;;2049096;28;20126;-84
2022/03/07 03:55:56;;;;;;;6.55;3.63;;;0.30;80.90;;;;;;2060461;28;20047;-84
2022/03/07 03:56:56;;;;;;;5.15;3.33;;;0.30;80.90;;;;;;2047979;28;20122;-84
2022/03/07 03:57:57;;;;;;;6.28;3.70;;;0.30;80.90;;;;;;2047706;28;20054;-84
2022/03/07 03:58:58;;;;;;;5.97;3.72;;;0.30;80.90;;;;;;2082613;28;20063;-84
2022/03/07 03:59:58;;;;;;;5.75;3.70;;;0.30;80.90;;;;;;2080888;28;20543;-84
2022/03/07 04:00:59;;;;;;;6.13;3.75;;;0.30;80.80;;;;;;2048996;28;20047;-84
2022/03/07 04:02:00;;;;;;;5.82;3.72;;;0.30;80.80;;;;;;2064228;28;20046;-84
2022/03/07 04:03:01;;;;;;;7.25;4.07;;;0.40;80.90;;;;;;2058687;28;20030;-84
2022/03/07 04:04:01;;;;;;;6.10;4.10;;;0.30;80.90;;;;;;2047905;28;20563;-84
2022/03/07 04:05:03;;;;;;;7.03;4.18;;;0.30;80.80;;;;;;2050870;28;20592;-83
2022/03/07 04:06:06;;;;;;;7.25;3.97;;;0.30;80.80;;;;;;2047483;28;20100;-84
2022/03/07 04:07:07;;;;;;;7.05;3.90;;;0.40;80.90;;;;;;2046535;28;20478;-84
2022/03/07 04:08:08;;;;;;;6.72;4.20;;;0.40;80.90;;;;;;2054219;28;20035;-84
2022/03/07 04:09:19;;;;;;;7.93;4.65;;;0.40;80.80;;;;;;2078816;28;20028;-84
2022/03/07 04:10:20;;;;;;;8.25;4.43;;;0.40;80.80;;;;;;2098458;28;20050;-85
2022/03/07 04:11:21;;;;;;;7.45;4.68;;;0.40;80.80;;;;;;2061753;28;20042;-84
2022/03/07 04:12:22;;;;;;;7.45;4.70;;;0.40;80.70;;;;;;2055331;28;20035;-84
2022/03/07 04:13:22;;;;;;;6.75;4.20;;;0.40;80.80;;;;;;2050874;28;20039;-84
2022/03/07 04:14:23;;;;;;;6.50;4.05;;;0.40;80.60;;;;;;2055380;28;20062;-84
2022/03/07 04:15:25;;;;;;;7.03;4.70;;;0.40;80.60;;;;;;2047387;28;20181;-84
2022/03/07 04:16:26;;;;;;;7.18;4.57;;;0.50;80.70;;;;;;2050523;28;20044;-84
2022/03/07 04:17:26;;;;;;;7.78;5.00;;;0.40;80.70;;;;;;2089274;28;20112;-84
2022/03/07 04:18:27;;;;;;;7.03;4.65;;;0.40;80.70;;;;;;2042600;28;20426;-85
2022/03/07 04:19:28;;;;;;;6.65;4.13;;;0.40;80.70;;;;;;2054202;28;20400;-84
2022/03/07 04:20:28;;;;;;;7.47;4.43;;;0.40;80.70;;;;;;2055539;28;20062;-85
2022/03/07 04:21:29;;;;;;;7.63;4.68;;;0.40;80.70;;;;;;2047243;28;20047;-84
2022/03/07 04:22:29;;;;;;;7.15;4.68;;;0.40;80.80;;;;;;2055338;28;20046;-84
2022/03/07 04:23:31;;;;;;;7.85;4.80;;;0.40;80.80;;;;;;2072288;28;20511;-84
2022/03/07 04:24:34;;;;;;;8.60;4.90;;;0.40;80.80;;;;;;2096841;28;20094;-84
2022/03/07 04:25:35;;;;;;;7.35;4.50;;;0.40;80.80;;;;;;2097177;28;20051;-85
2022/03/07 04:26:36;;;;;;;7.05;4.32;;;0.40;80.80;;;;;;2081068;28;20035;-85
2022/03/07 04:27:37;;;;;;;8.02;4.60;;;0.40;80.80;;;;;;2054114;28;20027;-84
2022/03/07 04:28:38;;;;;;;7.55;4.80;;;0.40;80.80;;;;;;2054736;28;20046;-84
2022/03/07 04:29:38;;;;;;;8.43;4.10;;;0.40;80.80;;;;;;2060338;28;20039;-84
2022/03/07 04:30:40;;;;;;;7.25;4.78;;;0.40;80.80;;;;;;2054983;28;20054;-85
2022/03/07 04:31:42;;;;;;;8.90;5.25;;;0.40;80.80;;;;;;2047356;28;20035;-85
2022/03/07 04:32:46;;;;;;;7.00;4.75;;;0.40;80.80;;;;;;2047851;28;20043;-84
2022/03/07 04:33:47;;;;;;;7.05;4.28;;;0.50;80.80;;;;;;2055558;28;20031;-84
2022/03/07 04:34:47;;;;;;;6.75;4.32;;;0.40;80.60;;;;;;2070352;28;20173;-85
2022/03/07 04:35:48;;;;;;;6.93;4.75;;;0.50;80.70;;;;;;2088961;28;20041;-84
2022/03/07 04:36:49;;;;;;;7.72;5.25;;;0.50;80.70;;;;;;2076593;28;20033;-84
2022/03/07 04:37:49;;;;;;;10.05;5.28;;;0.50;80.60;;;;;;2055471;28;20038;-84
2022/03/07 04:38:50;;;;;;;7.57;4.75;;;0.50;80.60;;;;;;2062474;28;20465;-84
2022/03/07 04:39:50;;;;;;;6.95;4.50;;;0.50;80.60;;;;;;2061444;28;20042;-84
2022/03/07 04:40:51;;;;;;;7.13;4.45;;;0.50;80.60;;;;;;2046648;28;20035;-84
2022/03/07 04:41:51;;;;;;;7.28;4.50;;;0.50;80.60;;;;;;2046119;28;20065;-84
2022/03/07 04:42:52;;;;;;;7.53;4.90;;;0.50;80.60;;;;;;2050441;28;20456;-84
2022/03/07 04:43:53;;;;;;;7.20;4.70;;;0.50;80.70;;;;;;2055315;28;20042;-84
2022/03/07 04:44:54;;;;;;;7.78;4.93;;;0.50;80.70;;;;;;2063122;28;20502;-85
2022/03/07 04:45:54;;;;;;;7.30;4.75;;;0.50;80.70;;;;;;2053784;28;20125;-85
2022/03/07 04:46:55;;;;;;;7.63;4.72;;;0.50;80.70;;;;;;2047287;28;20040;-85
2022/03/07 04:47:56;;;;;;;5.85;4.05;;;0.40;80.70;;;;;;2047158;28;20043;-84
2022/03/07 04:48:56;;;;;;;7.15;4.45;;;0.40;80.80;;;;;;2045668;28;20038;-84
2022/03/07 04:49:57;;;;;;;6.72;4.43;;;0.40;80.80;;;;;;2048564;28;20050;-84
2022/03/07 04:50:57;;;;;;;7.22;4.63;;;0.40;80.80;;;;;;2092620;28;20518;-84
2022/03/07 04:51:58;;;;;;;6.80;4.30;;;0.40;80.90;;;;;;2046566;28;20043;-84
2022/03/07 04:52:58;;;;;;;6.55;4.10;;;0.40;80.80;;;;;;2047346;28;20067;-85
2022/03/07 04:53:59;;;;;;;7.28;4.30;;;0.40;80.90;;;;;;2058716;28;20035;-85
2022/03/07 04:55:00;;;;;;;7.13;4.35;;;0.40;80.90;;;;;;2058870;28;20070;-85
2022/03/07 04:56:00;;;;;;;7.53;4.57;;;0.30;81.00;;;;;;2055212;28;20191;-84
2022/03/07 04:57:01;;;;;;;6.78;4.22;;;0.40;81.10;;;;;;2048731;28;20117;-84
2022/03/07 04:58:02;;;;;;;6.97;4.35;;;0.40;81.10;;;;;;2056609;28;20078;-85
2022/03/07 04:59:03;;;;;;;7.15;4.35;;;0.40;81.70;;;;;;2040771;29;20044;-85
2022/03/07 05:00:07;;;;;;;6.85;4.38;;;0.40;81.10;;;;;;2038552;28;20075;-84
2022/03/07 05:01:09;;;;;;;8.50;4.50;;;0.40;81.10;;;;;;2054702;28;20484;-85
2022/03/07 05:02:10;;;;;;;7.00;4.30;;;0.30;81.10;;;;;;2065262;28;20103;-85
2022/03/07 05:03:11;;;;;;;6.40;4.45;;;0.40;81.20;;;;;;2063913;28;20491;-85
2022/03/07 05:04:12;;;;;;;6.80;4.10;;;0.30;81.10;;;;;;2064719;28;20049;-84
2022/03/07 05:05:13;;;;;;;6.47;4.03;;;0.30;81.20;;;;;;2066351;28;20058;-84
2022/03/07 05:06:14;;;;;;;5.47;3.83;;;0.30;81.90;;;;;;2056759;28;20065;-85
2022/03/07 05:07:14;;;;;;;6.72;4.32;;;0.30;82.00;;;;;;2056477;28;20498;-85
2022/03/07 05:08:15;;;;;;;7.22;4.40;;;0.30;81.40;;;;;;2064537;28;20408;-84
2022/03/07 05:09:16;;;;;;;7.40;4.28;;;0.20;81.40;;;;;;2061839;28;20129;-84
2022/03/07 05:10:18;;;;;;;7.10;3.80;;;0.20;81.50;;;;;;2061370;28;20038;-84
2022/03/07 05:11:18;;;;;;;6.70;4.45;;;0.20;81.60;;;;;;2075668;28;20594;-85
2022/03/07 05:12:19;;;;;;;6.78;4.40;;;0.20;81.70;;;;;;2059064;28;20039;-84
2022/03/07 05:13:20;;;;;;;6.32;4.13;;;0.20;81.70;;;;;;2064294;28;20207;-85
2022/03/07 05:14:20;;;;;;;6.70;3.90;;;0.20;81.70;;;;;;2060698;28;20098;-85
2022/03/07 05:15:21;;;;;;;7.30;3.80;;;0.20;81.80;;;;;;2098744;28;20456;-85
2022/03/07 05:16:22;;;;;;;7.53;4.13;;;0.20;81.70;;;;;;2065178;28;20526;-85
2022/03/07 05:17:22;;;;;;;7.15;4.57;;;0.20;81.70;;;;;;2064978;28;20054;-85
2022/03/07 05:18:23;;;;;;;6.07;3.80;;;0.20;81.80;;;;;;2095542;28;20040;-84
2022/03/07 05:19:23;;;;;;;6.30;3.92;;;0.20;81.70;;;;;;2046775;28;20027;-84
2022/03/07 05:20:25;;;;;;;7.95;4.38;;;0.20;81.70;;;;;;2049195;28;20409;-84
2022/03/07 05:21:25;;;;;;;6.70;4.13;;;0.20;81.70;;;;;;2056384;28;22435;-85